Time;durP1;ratioP1;P1;durP2;ratioP2;P2;SDS_P1;SDS_P2;PMS_P1;PMS_P2;Temp;Humidity;BMP_temperature;BMP_pressure;BME280_temperature;BME280_humidity;BME280_pressure;Samples;Min_cycle;Max_cycle;Signal;HPM_P1;HPM_P2
2024/01/14 00:00:06;;;;;;;81.27;32.47;;;3.80;99.90;;;;;;5014635;28;20022;-80
2024/01/14 00:02:32;;;;;;;73.73;31.47;;;3.80;99.90;;;;;;5014551;28;20021;-80
2024/01/14 00:04:58;;;;;;;72.37;30.73;;;3.80;99.90;;;;;;5014013;28;20076;-81
2024/01/14 00:07:23;;;;;;;80.57;31.47;;;3.80;99.90;;;;;;5029587;28;20351;-81
2024/01/14 00:09:49;;;;;;;84.57;33.27;;;3.80;99.90;;;;;;5029523;28;20022;-82
2024/01/14 00:12:15;;;;;;;74.63;30.67;;;3.80;99.90;;;;;;5014272;28;20053;-80
2024/01/14 00:14:41;;;;;;;80.97;33.93;;;3.70;99.90;;;;;;5029389;28;20527;-81
2024/01/14 00:17:07;;;;;;;80.83;32.43;;;3.70;99.90;;;;;;5014008;28;20029;-81
2024/01/14 00:19:33;;;;;;;73.97;30.80;;;3.70;99.90;;;;;;5013738;28;20125;-81
2024/01/14 00:21:58;;;;;;;74.40;32.47;;;3.80;99.90;;;;;;5014160;28;20362;-82
2024/01/14 00:24:24;;;;;;;77.80;31.63;;;3.70;99.90;;;;;;5013852;28;20034;-82
2024/01/14 00:26:50;;;;;;;82.73;33.30;;;3.70;99.90;;;;;;5012864;28;20049;-81
2024/01/14 00:29:15;;;;;;;72.93;31.40;;;3.70;99.90;;;;;;5012830;28;20084;-81
2024/01/14 00:31:41;;;;;;;78.67;30.83;;;3.70;99.90;;;;;;5013818;28;20030;-80
2024/01/14 00:34:07;;;;;;;75.43;34.17;;;3.70;99.90;;;;;;5013445;28;20030;-80
2024/01/14 00:36:40;;;;;;;80.47;33.10;;;3.70;99.90;;;;;;5012626;28;20045;-80
2024/01/14 00:39:06;;;;;;;82.22;32.42;;;3.70;99.90;;;;;;5015084;28;20040;-79
2024/01/14 00:41:33;;;;;;;82.87;32.93;;;3.70;99.90;;;;;;5014691;28;20018;-81
2024/01/14 00:44:00;;;;;;;88.93;33.50;;;3.80;99.90;;;;;;5012526;28;20401;-81
2024/01/14 00:46:26;;;;;;;80.37;32.40;;;3.70;99.90;;;;;;5011928;28;20092;-81
2024/01/14 00:48:52;;;;;;;75.87;30.30;;;3.70;99.90;;;;;;5012308;28;20042;-81
2024/01/14 00:51:17;;;;;;;73.87;28.97;;;3.70;99.90;;;;;;5013673;28;20379;-80
2024/01/14 00:53:43;;;;;;;85.40;32.07;;;3.90;99.90;;;;;;5013660;28;20026;-81
2024/01/14 00:56:08;;;;;;;78.47;29.90;;;3.90;99.90;;;;;;5013573;28;20036;-81
2024/01/14 00:58:34;;;;;;;72.27;28.67;;;3.70;99.90;;;;;;5013314;28;20036;-80
2024/01/14 01:01:00;;;;;;;71.47;29.13;;;3.70;99.90;;;;;;5028588;28;20501;-79
2024/01/14 01:03:25;;;;;;;82.43;31.37;;;3.80;99.90;;;;;;5013333;28;20056;-80
2024/01/14 01:05:54;;;;;;;86.63;33.13;;;3.80;99.90;;;;;;5013447;28;20036;-80
2024/01/14 01:08:19;;;;;;;73.07;28.00;;;3.80;99.90;;;;;;5012272;28;20508;-79
2024/01/14 01:10:45;;;;;;;77.30;30.50;;;3.80;99.90;;;;;;5013475;28;20025;-79
2024/01/14 01:13:11;;;;;;;87.70;31.20;;;3.70;99.90;;;;;;5013421;28;20034;-79
2024/01/14 01:15:36;;;;;;;83.87;32.67;;;3.70;99.90;;;;;;5013183;28;20045;-79
2024/01/14 01:18:02;;;;;;;101.03;36.90;;;3.70;99.90;;;;;;5011750;28;20072;-81
2024/01/14 01:20:28;;;;;;;96.37;37.20;;;3.70;99.90;;;;;;5013126;28;20029;-81
2024/01/14 01:22:53;;;;;;;107.90;36.90;;;3.70;99.90;;;;;;5012007;28;20018;-81
2024/01/14 01:25:19;;;;;;;94.30;33.70;;;3.70;99.90;;;;;;5013441;28;20359;-81
2024/01/14 01:27:44;;;;;;;92.20;34.67;;;3.70;99.90;;;;;;5013409;28;20367;-80
2024/01/14 01:30:10;;;;;;;89.70;32.47;;;3.70;99.90;;;;;;5013206;28;20076;-81
2024/01/14 01:32:36;;;;;;;96.80;33.40;;;3.70;99.90;;;;;;5011228;28;20018;-80
2024/01/14 01:35:02;;;;;;;84.07;33.77;;;3.70;99.90;;;;;;5011899;28;20052;-81
2024/01/14 01:37:27;;;;;;;91.43;34.43;;;3.70;99.90;;;;;;5012083;28;20124;-81
2024/01/14 01:39:53;;;;;;;101.60;36.80;;;3.70;99.90;;;;;;5029371;28;20041;-81
2024/01/14 01:42:18;;;;;;;98.03;34.70;;;3.80;99.90;;;;;;5028148;28;20030;-81
2024/01/14 01:44:44;;;;;;;98.07;35.83;;;3.70;99.90;;;;;;5027981;28;20088;-81
2024/01/14 01:47:11;;;;;;;103.53;37.60;;;3.70;99.90;;;;;;5028089;28;20034;-81
2024/01/14 01:49:37;;;;;;;97.23;36.00;;;3.70;99.90;;;;;;5013028;28;20359;-81
2024/01/14 01:52:06;;;;;;;91.33;35.10;;;3.70;99.90;;;;;;5028247;28;20025;-81
2024/01/14 01:54:33;;;;;;;104.57;37.17;;;3.70;99.90;;;;;;5027934;28;20045;-80
2024/01/14 01:56:59;;;;;;;109.83;37.93;;;3.70;99.90;;;;;;5012912;28;20033;-80
2024/01/14 01:59:26;;;;;;;112.90;38.23;;;3.70;99.90;;;;;;5015241;28;20478;-80
2024/01/14 02:01:54;;;;;;;102.63;38.07;;;3.80;99.90;;;;;;5016433;28;20014;-80
2024/01/14 02:04:20;;;;;;;113.13;39.40;;;3.70;99.90;;;;;;5031566;28;20406;-80
2024/01/14 02:06:46;;;;;;;95.37;35.80;;;3.70;99.90;;;;;;5016693;28;20164;-79
2024/01/14 02:09:12;;;;;;;96.53;35.17;;;3.70;99.90;;;;;;5031938;28;20370;-81
2024/01/14 02:11:38;;;;;;;97.93;35.23;;;3.70;99.90;;;;;;5031936;28;20116;-80
2024/01/14 02:14:04;;;;;;;96.60;35.00;;;3.70;99.90;;;;;;5016297;28;20101;-79
2024/01/14 02:16:30;;;;;;;104.47;36.53;;;3.80;99.90;;;;;;5031417;28;20057;-80
2024/01/14 02:18:56;;;;;;;98.13;35.50;;;3.70;99.90;;;;;;5031694;28;20081;-80
2024/01/14 02:21:25;;;;;;;97.53;35.63;;;3.70;99.90;;;;;;5031753;28;20561;-80
2024/01/14 02:24:02;;;;;;;103.37;37.83;;;3.70;99.90;;;;;;5016392;28;20034;-82
2024/01/14 02:26:27;;;;;;;108.30;39.00;;;3.70;99.90;;;;;;5032057;28;20033;-80
2024/01/14 02:28:53;;;;;;;112.80;41.17;;;3.70;99.90;;;;;;5015095;28;20028;-81
2024/01/14 02:31:19;;;;;;;105.57;39.20;;;3.70;99.90;;;;;;5014472;28;20470;-81
2024/01/14 02:33:44;;;;;;;101.30;40.33;;;3.70;99.90;;;;;;5015842;28;20540;-80
2024/01/14 02:36:10;;;;;;;110.30;39.77;;;3.70;99.90;;;;;;5031370;28;20124;-80
2024/01/14 02:38:35;;;;;;;111.70;42.63;;;3.70;99.90;;;;;;5015864;28;20030;-81
2024/01/14 02:41:01;;;;;;;110.93;44.10;;;3.70;99.90;;;;;;5031135;28;20026;-79
2024/01/14 02:43:27;;;;;;;116.57;44.27;;;3.70;99.90;;;;;;5016034;28;20481;-80
2024/01/14 02:45:52;;;;;;;113.13;43.60;;;3.60;99.90;;;;;;5014356;28;20045;-79
2024/01/14 02:48:18;;;;;;;112.17;41.27;;;3.60;99.90;;;;;;5014320;28;20022;-81
2024/01/14 02:50:43;;;;;;;105.27;41.10;;;3.70;99.90;;;;;;5014667;28;20503;-81
2024/01/14 02:53:09;;;;;;;109.87;41.80;;;3.70;99.90;;;;;;5015792;28;20521;-81
2024/01/14 02:55:35;;;;;;;107.47;42.30;;;3.60;99.90;;;;;;5014309;28;20030;-80
2024/01/14 02:58:00;;;;;;;103.83;41.07;;;3.70;99.90;;;;;;5030768;28;20034;-81
2024/01/14 03:00:26;;;;;;;107.17;42.97;;;3.60;99.90;;;;;;5030676;28;20118;-81
2024/01/14 03:02:51;;;;;;;111.80;40.27;;;3.70;99.90;;;;;;5030870;28;20029;-81
2024/01/14 03:05:17;;;;;;;98.03;39.37;;;3.70;99.90;;;;;;5015651;28;20033;-81
2024/01/14 03:07:43;;;;;;;97.57;39.33;;;3.70;99.90;;;;;;5030741;28;20025;-80
2024/01/14 03:10:08;;;;;;;117.20;42.27;;;3.70;99.90;;;;;;5013616;28;20103;-81
2024/01/14 03:12:34;;;;;;;109.63;43.83;;;3.70;99.90;;;;;;5030709;28;20021;-81
2024/01/14 03:15:00;;;;;;;104.30;40.00;;;3.60;99.90;;;;;;5030471;28;20030;-81
2024/01/14 03:17:25;;;;;;;116.47;45.97;;;3.60;99.90;;;;;;5014975;28;20526;-79
2024/01/14 03:19:51;;;;;;;119.03;44.53;;;3.70;99.90;;;;;;5030134;28;20528;-80
2024/01/14 03:22:17;;;;;;;112.93;44.97;;;3.60;99.90;;;;;;5015268;28;20389;-80
2024/01/14 03:24:44;;;;;;;112.70;43.17;;;3.60;99.90;;;;;;5015210;28;20022;-81
2024/01/14 03:27:10;;;;;;;118.00;44.80;;;3.60;99.90;;;;;;5030508;28;20026;-82
2024/01/14 03:29:35;;;;;;;121.13;46.07;;;3.50;99.90;;;;;;5014867;28;20022;-81
2024/01/14 03:32:01;;;;;;;137.90;51.50;;;3.60;99.90;;;;;;5030134;28;20432;-80
2024/01/14 03:34:27;;;;;;;123.20;48.77;;;3.50;99.90;;;;;;5030366;28;20026;-80
2024/01/14 03:36:52;;;;;;;130.00;48.47;;;3.50;99.90;;;;;;5013605;28;20021;-80
2024/01/14 03:39:19;;;;;;;125.43;50.43;;;3.50;99.90;;;;;;5013655;28;20478;-81
2024/01/14 03:41:44;;;;;;;116.43;44.87;;;3.50;99.90;;;;;;5014896;28;20022;-79
2024/01/14 03:44:10;;;;;;;125.63;48.23;;;3.50;99.90;;;;;;5014743;28;20026;-80
2024/01/14 03:46:36;;;;;;;128.77;47.93;;;3.50;99.90;;;;;;5029881;28;20025;-81
2024/01/14 03:49:02;;;;;;;113.50;46.57;;;3.50;99.90;;;;;;5013413;28;20022;-81
2024/01/14 03:51:27;;;;;;;125.43;46.90;;;3.50;99.90;;;;;;5013434;28;20072;-79
2024/01/14 03:53:53;;;;;;;124.13;48.47;;;3.50;99.90;;;;;;5014628;28;20076;-81
2024/01/14 03:56:19;;;;;;;127.60;45.10;;;3.50;99.90;;;;;;5014524;28;20099;-81
2024/01/14 03:58:44;;;;;;;124.03;50.17;;;3.40;99.90;;;;;;5029440;28;20440;-81
2024/01/14 04:01:17;;;;;;;112.67;43.07;;;3.40;99.90;;;;;;5029770;28;20061;-80
2024/01/14 04:03:43;;;;;;;101.93;40.70;;;3.40;99.90;;;;;;5014511;28;20080;-81
2024/01/14 04:06:09;;;;;;;110.17;45.50;;;3.50;99.90;;;;;;5029699;28;20445;-80
2024/01/14 04:08:34;;;;;;;116.83;42.73;;;3.40;99.90;;;;;;5029679;28;20025;-79
2024/01/14 04:11:00;;;;;;;115.30;44.93;;;3.40;99.90;;;;;;5014547;28;20033;-81
2024/01/14 04:13:25;;;;;;;117.80;44.63;;;3.40;99.90;;;;;;5012820;28;20026;-80
2024/01/14 04:15:51;;;;;;;114.20;44.17;;;3.40;99.90;;;;;;5014213;28;20370;-80
2024/01/14 04:18:17;;;;;;;127.07;48.37;;;3.40;99.90;;;;;;5013829;28;20133;-80
2024/01/14 04:20:42;;;;;;;118.87;46.73;;;3.40;99.90;;;;;;5013693;28;20044;-81
2024/01/14 04:23:08;;;;;;;122.57;44.53;;;3.30;99.90;;;;;;5013899;28;20030;-81
2024/01/14 04:25:34;;;;;;;112.20;43.00;;;3.30;99.90;;;;;;5014212;28;20026;-82
2024/01/14 04:27:59;;;;;;;116.87;45.27;;;3.40;99.90;;;;;;5028899;28;20489;-82
2024/01/14 04:30:25;;;;;;;132.53;45.87;;;3.30;99.90;;;;;;5014320;28;20493;-79
2024/01/14 04:32:51;;;;;;;122.20;44.50;;;3.20;99.90;;;;;;5013801;28;20032;-81
2024/01/14 04:35:16;;;;;;;125.80;47.37;;;3.30;99.90;;;;;;5013978;28;20026;-80
2024/01/14 04:37:42;;;;;;;118.97;45.07;;;3.30;99.90;;;;;;5013822;28;20103;-81
2024/01/14 04:40:08;;;;;;;121.03;45.70;;;3.30;99.90;;;;;;5013768;28;20058;-81
2024/01/14 04:42:34;;;;;;;130.10;47.00;;;3.30;99.90;;;;;;5028959;28;20073;-82
2024/01/14 04:44:59;;;;;;;129.93;47.13;;;3.30;99.90;;;;;;5029085;28;20014;-82
2024/01/14 04:47:25;;;;;;;124.27;47.70;;;3.40;99.90;;;;;;5028923;28;20390;-81
2024/01/14 04:49:51;;;;;;;125.80;46.57;;;3.30;99.90;;;;;;5029016;28;20033;-81
2024/01/14 04:52:16;;;;;;;120.37;47.43;;;3.30;99.90;;;;;;5013783;28;20029;-81
2024/01/14 04:54:42;;;;;;;121.50;46.20;;;3.30;99.90;;;;;;5028545;28;20386;-81
2024/01/14 04:57:07;;;;;;;125.10;47.70;;;3.30;99.90;;;;;;5012080;28;20482;-81
2024/01/14 04:59:33;;;;;;;105.23;43.73;;;3.30;99.90;;;;;;5028789;28;20018;-80
2024/01/14 05:01:59;;;;;;;117.47;46.33;;;3.30;99.90;;;;;;5028866;28;20133;-81
2024/01/14 05:04:24;;;;;;;113.67;42.13;;;3.30;99.90;;;;;;5013601;28;20026;-81
2024/01/14 05:06:50;;;;;;;104.67;43.07;;;3.30;99.90;;;;;;5013121;28;20034;-80
2024/01/14 05:09:16;;;;;;;102.47;43.20;;;3.30;99.90;;;;;;5028658;28;20029;-81
2024/01/14 05:11:41;;;;;;;116.50;42.27;;;3.30;99.90;;;;;;5028471;28;20056;-81
2024/01/14 05:14:07;;;;;;;108.00;41.43;;;3.40;99.90;;;;;;5028548;28;20053;-81
2024/01/14 05:16:33;;;;;;;109.87;42.93;;;3.40;99.90;;;;;;5013267;28;20030;-81
2024/01/14 05:18:58;;;;;;;113.33;41.57;;;3.40;99.90;;;;;;5012936;28;20045;-81
2024/01/14 05:21:24;;;;;;;106.47;40.93;;;3.30;99.90;;;;;;5013340;28;20014;-81
2024/01/14 05:23:50;;;;;;;112.67;45.60;;;3.40;99.90;;;;;;5028437;28;20030;-80
2024/01/14 05:26:16;;;;;;;118.57;46.90;;;3.30;99.90;;;;;;5028296;28;20137;-80
2024/01/14 05:28:41;;;;;;;118.10;46.13;;;3.40;99.90;;;;;;5013331;28;20081;-82
2024/01/14 05:31:07;;;;;;;103.37;41.60;;;3.30;99.90;;;;;;5012976;28;20032;-81
2024/01/14 05:33:32;;;;;;;105.50;43.40;;;3.30;99.90;;;;;;5015889;28;20049;-81
2024/01/14 05:35:58;;;;;;;106.63;40.97;;;3.30;99.90;;;;;;5032688;28;20458;-82
2024/01/14 05:38:24;;;;;;;107.13;39.87;;;3.20;99.90;;;;;;5016030;28;20492;-81
2024/01/14 05:40:49;;;;;;;102.57;39.97;;;3.30;99.90;;;;;;5015784;28;20489;-81
2024/01/14 05:43:16;;;;;;;96.13;40.20;;;3.20;99.90;;;;;;5015742;28;20141;-79
2024/01/14 05:45:41;;;;;;;90.70;36.27;;;3.20;99.90;;;;;;5032332;28;20022;-81
2024/01/14 05:48:07;;;;;;;96.73;39.70;;;3.20;99.90;;;;;;5017107;28;20381;-80
2024/01/14 05:50:33;;;;;;;91.67;36.40;;;3.20;99.90;;;;;;5032139;28;20014;-79
2024/01/14 05:52:58;;;;;;;88.37;35.83;;;3.20;99.90;;;;;;5032347;28;20105;-82
2024/01/14 05:55:24;;;;;;;87.47;36.27;;;3.10;99.90;;;;;;5032348;28;20029;-81
2024/01/14 05:57:49;;;;;;;84.87;35.17;;;3.20;99.90;;;;;;5016772;28;20104;-80
2024/01/14 06:00:15;;;;;;;86.50;34.17;;;3.20;99.90;;;;;;5032172;28;20120;-80
2024/01/14 06:02:41;;;;;;;82.47;33.00;;;3.20;99.90;;;;;;5016826;28;20026;-82
2024/01/14 06:05:07;;;;;;;87.67;35.30;;;3.20;99.90;;;;;;5016567;28;20374;-80
2024/01/14 06:07:32;;;;;;;84.77;33.33;;;3.20;99.90;;;;;;5034850;28;20492;-81
2024/01/14 06:09:58;;;;;;;83.77;33.40;;;3.10;99.90;;;;;;5036489;28;20462;-81
2024/01/14 06:12:24;;;;;;;84.23;34.90;;;3.20;99.90;;;;;;5035132;28;20033;-80
2024/01/14 06:14:49;;;;;;;95.80;37.93;;;3.20;99.90;;;;;;5034774;28;20458;-81
2024/01/14 06:17:15;;;;;;;86.40;36.73;;;3.20;99.90;;;;;;5035455;28;20119;-81
2024/01/14 06:19:42;;;;;;;86.07;38.30;;;3.10;99.90;;;;;;5016839;28;20068;-80
2024/01/14 06:22:07;;;;;;;91.27;35.83;;;3.10;99.90;;;;;;5026213;28;20500;-81
2024/01/14 06:24:33;;;;;;;84.13;33.57;;;3.20;99.90;;;;;;5036081;28;20099;-80
2024/01/14 06:26:58;;;;;;;81.73;32.37;;;3.10;99.90;;;;;;5034371;28;20129;-81
2024/01/14 06:29:24;;;;;;;82.40;32.43;;;3.10;99.90;;;;;;5035905;28;20026;-79
2024/01/14 06:31:50;;;;;;;80.83;33.87;;;3.10;99.90;;;;;;5035836;28;20029;-80
2024/01/14 06:34:16;;;;;;;86.23;34.40;;;3.20;99.90;;;;;;5034452;28;20049;-80
2024/01/14 06:36:41;;;;;;;86.40;35.73;;;3.00;99.90;;;;;;5034351;28;20057;-80
2024/01/14 06:39:07;;;;;;;87.83;34.43;;;3.00;99.90;;;;;;5034644;28;20112;-81
2024/01/14 06:41:34;;;;;;;85.53;35.87;;;3.10;99.90;;;;;;5034649;28;20053;-80
2024/01/14 06:44:00;;;;;;;90.13;35.97;;;3.00;99.90;;;;;;5034789;28;20017;-81
2024/01/14 06:46:25;;;;;;;89.63;34.80;;;3.00;99.90;;;;;;5034458;28;20424;-81
2024/01/14 06:48:51;;;;;;;83.47;33.60;;;3.10;99.90;;;;;;5034389;28;20036;-81
2024/01/14 06:51:17;;;;;;;86.43;34.97;;;3.00;99.90;;;;;;5034257;28;20080;-81
2024/01/14 06:53:42;;;;;;;80.30;35.67;;;3.00;99.90;;;;;;5034409;28;20028;-81
2024/01/14 06:56:08;;;;;;;76.10;30.83;;;3.00;99.90;;;;;;5033945;28;20389;-83
2024/01/14 06:58:34;;;;;;;82.97;36.03;;;3.00;99.90;;;;;;5034304;28;20024;-81
2024/01/14 07:01:00;;;;;;;85.67;35.50;;;3.00;99.90;;;;;;5034213;28;20385;-80
2024/01/14 07:03:26;;;;;;;76.53;32.83;;;3.00;99.90;;;;;;5033839;28;20056;-80
2024/01/14 07:05:51;;;;;;;88.27;36.53;;;3.00;99.90;;;;;;5033932;28;20370;-81
2024/01/14 07:08:18;;;;;;;83.03;35.80;;;3.00;99.90;;;;;;5035356;28;20393;-81
2024/01/14 07:10:43;;;;;;;80.43;33.77;;;3.10;99.90;;;;;;5035580;28;20025;-80
2024/01/14 07:13:09;;;;;;;85.33;35.47;;;3.00;99.90;;;;;;5035061;28;20025;-81
2024/01/14 07:15:35;;;;;;;88.33;38.17;;;3.00;99.90;;;;;;5034049;28;20033;-81
2024/01/14 07:18:02;;;;;;;84.53;37.73;;;3.00;99.90;;;;;;5033885;28;20033;-81
2024/01/14 07:20:28;;;;;;;90.60;39.37;;;3.00;99.90;;;;;;5033480;28;20088;-81
2024/01/14 07:22:54;;;;;;;94.20;37.10;;;3.00;99.90;;;;;;5033552;28;20434;-81
2024/01/14 07:25:19;;;;;;;87.23;35.53;;;3.00;99.90;;;;;;5035345;28;20477;-80
2024/01/14 07:27:45;;;;;;;93.80;38.33;;;3.00;99.90;;;;;;5035197;28;20477;-81
2024/01/14 07:30:11;;;;;;;95.63;37.43;;;3.00;99.90;;;;;;5034912;28;20100;-81
2024/01/14 07:32:36;;;;;;;99.40;42.13;;;3.00;99.90;;;;;;5033078;28;20013;-81
2024/01/14 07:35:02;;;;;;;104.50;43.80;;;2.90;99.90;;;;;;5033829;28;20017;-82
2024/01/14 07:37:30;;;;;;;101.33;41.10;;;3.00;99.90;;;;;;5034906;28;20120;-81
2024/01/14 07:39:56;;;;;;;107.27;42.97;;;3.00;99.90;;;;;;5033344;28;20385;-82
2024/01/14 07:42:21;;;;;;;104.93;42.57;;;3.00;99.90;;;;;;5033515;28;20017;-81
2024/01/14 07:44:47;;;;;;;104.67;43.17;;;3.10;99.90;;;;;;5033389;28;20025;-80
2024/01/14 07:47:12;;;;;;;99.43;44.53;;;3.20;99.90;;;;;;5034311;28;20021;-81
2024/01/14 07:49:38;;;;;;;97.20;42.83;;;3.00;99.90;;;;;;5027553;28;20033;-79
2024/01/14 07:52:05;;;;;;;106.90;44.37;;;3.00;99.90;;;;;;5019879;28;20060;-81
2024/01/14 07:54:30;;;;;;;107.73;45.53;;;3.00;99.90;;;;;;5029911;28;20160;-80
2024/01/14 07:56:56;;;;;;;96.97;42.77;;;3.00;99.90;;;;;;5028715;28;20109;-81
2024/01/14 07:59:23;;;;;;;110.03;44.00;;;3.00;99.90;;;;;;5014963;28;20115;-81
2024/01/14 08:01:49;;;;;;;91.80;38.63;;;3.00;99.90;;;;;;5030069;28;20018;-82
2024/01/14 08:04:15;;;;;;;105.10;43.40;;;3.00;99.90;;;;;;5032275;28;20493;-80
2024/01/14 08:06:40;;;;;;;101.00;42.00;;;3.00;99.90;;;;;;5016308;28;20037;-81
2024/01/14 08:09:06;;;;;;;106.87;43.50;;;3.00;99.90;;;;;;5012973;28;20026;-81
2024/01/14 08:11:32;;;;;;;98.07;40.17;;;3.00;99.90;;;;;;5012995;28;20428;-81
2024/01/14 08:13:58;;;;;;;96.97;42.20;;;3.00;99.90;;;;;;5014456;28;20402;-81
2024/01/14 08:16:24;;;;;;;97.37;40.50;;;3.10;99.90;;;;;;5026681;28;20025;-81
2024/01/14 08:18:49;;;;;;;99.53;41.70;;;3.00;99.90;;;;;;5032270;28;20080;-80
2024/01/14 08:21:15;;;;;;;98.03;41.23;;;3.10;99.90;;;;;;5016169;28;20076;-81
2024/01/14 08:23:41;;;;;;;87.20;36.33;;;3.00;99.90;;;;;;5032189;28;20055;-81
2024/01/14 08:26:07;;;;;;;97.73;42.70;;;3.00;99.90;;;;;;5033843;28;20029;-81
2024/01/14 08:28:35;;;;;;;101.83;41.70;;;3.00;99.90;;;;;;5033848;28;20025;-80
2024/01/14 08:31:01;;;;;;;105.37;43.77;;;3.10;99.90;;;;;;5032348;28;20025;-81
2024/01/14 08:33:28;;;;;;;88.73;40.43;;;3.10;99.90;;;;;;5031870;28;20466;-81
2024/01/14 08:35:54;;;;;;;95.93;39.67;;;3.00;99.90;;;;;;5033625;28;20025;-82
2024/01/14 08:38:20;;;;;;;98.23;40.17;;;3.00;99.90;;;;;;5032356;28;20075;-80
2024/01/14 08:40:46;;;;;;;98.77;40.30;;;3.00;99.90;;;;;;5033654;28;20113;-80
2024/01/14 08:43:12;;;;;;;95.47;40.97;;;3.10;99.90;;;;;;5033409;28;20064;-80
2024/01/14 08:45:38;;;;;;;99.90;42.83;;;3.10;99.90;;;;;;5028341;28;20057;-81
2024/01/14 08:48:06;;;;;;;104.47;42.43;;;3.10;99.90;;;;;;5018349;28;20022;-80
2024/01/14 08:50:32;;;;;;;93.87;40.87;;;3.00;99.90;;;;;;5030098;28;20354;-81
2024/01/14 08:52:58;;;;;;;94.80;40.47;;;3.10;99.90;;;;;;5032884;28;20039;-81
2024/01/14 08:55:24;;;;;;;102.90;40.10;;;3.10;99.90;;;;;;5031856;28;20051;-80
2024/01/14 08:57:49;;;;;;;98.07;40.43;;;3.10;99.90;;;;;;5031250;28;20389;-81
2024/01/14 09:00:15;;;;;;;94.80;38.23;;;3.20;99.90;;;;;;5032830;28;20038;-81
2024/01/14 09:02:41;;;;;;;91.83;38.27;;;3.10;99.90;;;;;;5032693;28;20032;-81
2024/01/14 09:05:06;;;;;;;95.57;39.87;;;3.10;99.90;;;;;;5030969;28;20014;-80
2024/01/14 09:07:36;;;;;;;94.43;40.13;;;3.10;99.90;;;;;;5032635;28;20481;-79
2024/01/14 09:10:02;;;;;;;103.33;41.67;;;3.20;99.90;;;;;;5031527;28;20027;-81
2024/01/14 09:12:29;;;;;;;90.37;39.33;;;3.20;99.90;;;;;;5031282;28;20029;-80
2024/01/14 09:14:55;;;;;;;103.67;42.43;;;3.10;99.90;;;;;;5031303;28;20045;-81
2024/01/14 09:17:20;;;;;;;107.50;44.57;;;3.20;99.90;;;;;;5032502;28;20068;-81
2024/01/14 09:19:47;;;;;;;89.13;39.03;;;3.10;99.90;;;;;;5032025;28;20116;-80
2024/01/14 09:22:13;;;;;;;86.30;37.40;;;3.10;99.90;;;;;;5031549;28;20424;-79
2024/01/14 09:24:43;;;;;;;89.13;38.63;;;3.10;99.90;;;;;;5031247;28;20101;-78
2024/01/14 09:27:09;;;;;;;87.90;40.27;;;3.20;99.90;;;;;;5032810;28;20018;-79
2024/01/14 09:29:35;;;;;;;87.80;40.33;;;3.20;99.90;;;;;;5032641;28;20025;-80
2024/01/14 09:32:00;;;;;;;90.90;37.93;;;3.20;99.90;;;;;;5030831;28;20385;-80
2024/01/14 09:34:26;;;;;;;83.30;38.40;;;3.20;99.90;;;;;;5030671;28;20022;-80
2024/01/14 09:36:51;;;;;;;85.97;38.20;;;3.20;99.90;;;;;;5023975;28;20029;-79
2024/01/14 09:39:17;;;;;;;83.60;36.30;;;3.10;99.90;;;;;;5032171;28;20457;-80
2024/01/14 09:41:51;;;;;;;80.07;34.50;;;3.20;99.90;;;;;;5031043;28;20022;-80
2024/01/14 09:44:17;;;;;;;82.83;36.10;;;3.20;99.90;;;;;;5019391;28;20119;-80
2024/01/14 09:46:44;;;;;;;70.07;32.43;;;3.20;99.90;;;;;;5030708;28;20483;-80
2024/01/14 09:49:11;;;;;;;75.40;32.73;;;3.20;99.90;;;;;;5032027;28;20028;-79
2024/01/14 09:51:38;;;;;;;87.90;37.93;;;3.30;99.90;;;;;;5031037;28;20079;-79
2024/01/14 09:54:04;;;;;;;77.20;35.10;;;3.30;99.90;;;;;;5030084;28;20025;-79
2024/01/14 09:56:32;;;;;;;87.60;38.10;;;3.20;99.90;;;;;;5024013;28;20120;-79
2024/01/14 09:58:58;;;;;;;85.17;36.63;;;3.30;99.90;;;;;;5018284;28;20067;-81
2024/01/14 10:01:30;;;;;;;75.40;35.13;;;3.30;99.90;;;;;;5030665;28;20040;-82
2024/01/14 10:03:58;;;;;;;79.70;35.43;;;3.30;99.90;;;;;;5030859;28;20473;-79
2024/01/14 10:06:24;;;;;;;80.40;37.63;;;3.30;99.90;;;;;;5032386;28;20107;-80
2024/01/14 10:08:50;;;;;;;84.87;36.47;;;3.30;99.90;;;;;;5031814;28;20076;-80
2024/01/14 10:11:15;;;;;;;83.33;37.57;;;3.30;99.90;;;;;;5030634;28;20017;-80
2024/01/14 10:13:41;;;;;;;81.13;36.43;;;3.30;99.90;;;;;;5032423;28;20053;-80
2024/01/14 10:16:07;;;;;;;86.63;36.97;;;3.30;99.90;;;;;;5030254;28;20112;-81
2024/01/14 10:18:36;;;;;;;78.43;34.70;;;3.30;99.90;;;;;;5030633;28;20353;-79
2024/01/14 10:21:01;;;;;;;76.93;33.77;;;3.30;99.90;;;;;;5034509;28;20079;-81
2024/01/14 10:23:27;;;;;;;76.33;32.97;;;3.40;99.90;;;;;;5034542;28;20025;-80
2024/01/14 10:25:54;;;;;;;87.13;39.70;;;3.40;99.90;;;;;;5035561;28;20101;-81
2024/01/14 10:28:20;;;;;;;85.77;39.00;;;3.40;99.90;;;;;;5035880;28;20021;-81
2024/01/14 10:30:45;;;;;;;81.37;36.77;;;3.40;99.90;;;;;;5033553;28;20028;-80
2024/01/14 10:33:11;;;;;;;88.33;39.37;;;3.40;99.90;;;;;;5033935;28;20561;-80
2024/01/14 10:35:38;;;;;;;92.67;40.83;;;3.40;99.90;;;;;;5033961;28;20108;-81
2024/01/14 10:38:04;;;;;;;91.13;38.10;;;3.40;99.90;;;;;;5034137;28;20482;-81
2024/01/14 10:40:30;;;;;;;88.83;38.83;;;3.40;99.90;;;;;;5034970;28;20025;-79
2024/01/14 10:42:57;;;;;;;91.80;39.70;;;3.40;99.90;;;;;;5035190;28;20053;-81
2024/01/14 10:45:22;;;;;;;96.90;42.07;;;3.40;99.90;;;;;;5033207;28;20049;-80
2024/01/14 10:47:54;;;;;;;93.60;40.80;;;3.40;99.90;;;;;;5033248;28;20059;-81
2024/01/14 10:50:22;;;;;;;95.93;39.70;;;3.40;99.90;;;;;;5021232;28;20096;-82
2024/01/14 10:52:52;;;;;;;96.60;40.83;;;3.40;99.90;;;;;;5032810;28;20024;-80
2024/01/14 10:55:45;;;;;;;92.63;42.00;;;3.40;99.90;;;;;;5034621;28;20025;-79
2024/01/14 10:58:23;;;;;;;91.57;40.57;;;3.40;99.90;;;;;;5035182;28;20034;-79
2024/01/14 11:00:50;;;;;;;87.57;37.60;;;3.40;99.90;;;;;;5033494;28;20469;-80
2024/01/14 11:03:17;;;;;;;91.17;38.93;;;3.40;99.90;;;;;;5033815;28;20044;-79
2024/01/14 11:05:43;;;;;;;80.87;37.90;;;3.40;99.90;;;;;;5030042;28;20111;-80
2024/01/14 11:08:11;;;;;;;90.77;38.47;;;3.40;99.90;;;;;;5026620;28;20533;-79
2024/01/14 11:10:38;;;;;;;90.80;38.93;;;3.40;99.90;;;;;;5034564;28;20021;-80
2024/01/14 11:13:23;;;;;;;94.17;36.87;;;3.40;99.90;;;;;;5033281;28;20326;-79
2024/01/14 11:15:51;;;;;;;85.65;38.10;;;3.40;99.90;;;;;;5034675;28;20072;-80
2024/01/14 11:18:24;;;;;;;86.57;37.90;;;3.40;99.90;;;;;;5034384;28;20033;-80
2024/01/14 11:21:19;;;;;;;90.57;37.23;;;3.40;99.90;;;;;;5034752;28;20307;-80
2024/01/14 11:23:45;;;;;;;82.93;37.20;;;3.40;99.90;;;;;;5032941;28;20018;-79
2024/01/14 11:26:11;;;;;;;90.30;38.23;;;3.50;99.90;;;;;;5021036;28;20060;-79
2024/01/14 11:28:36;;;;;;;84.60;37.63;;;3.50;99.90;;;;;;5034099;28;20026;-80
2024/01/14 11:31:03;;;;;;;86.50;37.77;;;3.40;99.90;;;;;;5020806;28;20536;-80
2024/01/14 11:33:40;;;;;;;82.87;35.53;;;3.50;99.90;;;;;;5032841;28;20017;-80
2024/01/14 11:36:07;;;;;;;83.73;36.90;;;3.50;99.90;;;;;;5034926;28;20063;-80
2024/01/14 11:38:37;;;;;;;82.67;37.33;;;3.50;99.90;;;;;;5029176;28;20020;-80
2024/01/14 11:41:30;;;;;;;84.27;37.40;;;3.50;99.90;;;;;;5015515;28;20038;-80
2024/01/14 11:43:58;;;;;;;84.93;37.40;;;3.50;99.90;;;;;;5021851;28;20037;-80
2024/01/14 11:46:37;;;;;;;78.00;33.63;;;3.50;99.90;;;;;;5013809;28;20034;-80
2024/01/14 11:49:06;;;;;;;70.53;32.57;;;3.60;99.90;;;;;;5029937;28;20481;-81
2024/01/14 11:51:32;;;;;;;72.20;32.60;;;3.60;99.90;;;;;;5013430;28;20470;-81
2024/01/14 11:53:59;;;;;;;74.53;32.70;;;3.60;99.90;;;;;;5030037;28;20060;-79
2024/01/14 11:56:29;;;;;;;72.10;31.80;;;3.60;99.90;;;;;;5017349;28;20026;-80
2024/01/14 11:58:58;;;;;;;75.10;33.40;;;3.60;99.90;;;;;;5022810;28;20109;-80
2024/01/14 12:01:26;;;;;;;71.30;30.40;;;3.70;99.90;;;;;;5020185;28;20025;-80
2024/01/14 12:04:05;;;;;;;66.60;30.17;;;3.80;99.90;;;;;;5020906;28;20111;-78
2024/01/14 12:06:45;;;;;;;71.20;32.40;;;3.70;99.90;;;;;;5023658;28;20033;-81
2024/01/14 12:09:12;;;;;;;64.73;30.07;;;3.70;99.90;;;;;;5024930;28;20018;-80
2024/01/14 12:11:39;;;;;;;65.33;30.03;;;3.70;99.90;;;;;;5023514;28;20029;-81
2024/01/14 12:14:05;;;;;;;66.90;29.73;;;3.70;99.90;;;;;;5021854;28;20050;-80
2024/01/14 12:16:32;;;;;;;63.83;29.67;;;3.60;99.90;;;;;;5023080;28;20033;-78
2024/01/14 12:18:58;;;;;;;69.60;30.43;;;3.70;99.90;;;;;;5024368;28;20041;-79
2024/01/14 12:21:26;;;;;;;70.03;31.23;;;3.70;99.90;;;;;;5023070;28;20026;-79
2024/01/14 12:23:55;;;;;;;66.73;31.17;;;3.70;99.90;;;;;;5021745;28;20500;-78
2024/01/14 12:26:20;;;;;;;74.27;32.93;;;3.70;99.90;;;;;;5022827;28;20032;-79
2024/01/14 12:28:47;;;;;;;75.27;31.90;;;3.60;99.90;;;;;;5021990;28;20382;-79